createdAt,value
2023-02-08T00:09:05.218Z,8.15
2023-02-08T00:11:32.462Z,8.25
2023-02-08T00:13:59.774Z,8.25
2023-02-08T00:16:27.057Z,7.00
2023-02-08T00:18:53.994Z,8.02
2023-02-08T00:21:21.304Z,6.50
2023-02-08T00:23:48.610Z,7.78
2023-02-08T00:26:16.126Z,7.50
2023-02-08T00:28:43.798Z,7.13
2023-02-08T00:31:11.078Z,6.97
2023-02-08T00:33:38.385Z,6.72
2023-02-08T00:36:08.294Z,7.07
2023-02-08T00:38:35.941Z,7.95
2023-02-08T00:41:02.939Z,8.20
2023-02-08T00:43:30.188Z,7.05
2023-02-08T00:45:58.628Z,7.03
2023-02-08T00:48:27.148Z,7.32
2023-02-08T00:51:13.540Z,7.30
2023-02-08T00:56:10.046Z,7.93
2023-02-08T00:58:37.350Z,7.05
2023-02-08T01:01:06.216Z,7.70
2023-02-08T01:03:35.415Z,7.68
2023-02-08T01:06:04.450Z,7.63
2023-02-08T01:08:33.194Z,6.80
2023-02-08T01:11:15.408Z,7.18
2023-02-08T01:13:42.478Z,7.32
2023-02-08T01:16:15.034Z,7.97
2023-02-08T01:18:45.775Z,7.65
2023-02-08T01:21:16.837Z,7.97
2023-02-08T01:23:45.061Z,7.25
2023-02-08T01:26:14.236Z,7.18
2023-02-08T01:28:45.798Z,6.85
2023-02-08T01:31:15.406Z,7.55
2023-02-08T01:33:42.797Z,8.55
2023-02-08T01:36:10.823Z,7.28
2023-02-08T01:38:38.467Z,6.53
2023-02-08T01:41:07.290Z,7.47
2023-02-08T01:44:29.305Z,6.38
2023-02-08T01:46:56.527Z,7.72
2023-02-08T01:49:34.692Z,8.25
2023-02-08T01:52:07.041Z,7.25
2023-02-08T01:54:50.635Z,7.70
2023-02-08T01:57:20.822Z,6.68
2023-02-08T02:00:02.537Z,7.20
2023-02-08T02:02:41.728Z,7.15
2023-02-08T02:05:09.562Z,6.78
2023-02-08T02:07:36.919Z,7.35
2023-02-08T02:10:13.759Z,7.97
2023-02-08T02:12:41.833Z,7.38
2023-02-08T02:15:10.291Z,6.45
2023-02-08T02:17:39.171Z,7.85
2023-02-08T02:20:06.382Z,7.28
2023-02-08T02:22:33.606Z,8.00
2023-02-08T02:25:09.634Z,7.82
2023-02-08T02:30:35.912Z,6.47
2023-02-08T02:33:06.013Z,7.28
2023-02-08T02:35:54.181Z,7.80
2023-02-08T02:38:30.599Z,7.15
2023-02-08T02:41:02.802Z,7.57
2023-02-08T02:43:46.800Z,7.47
2023-02-08T02:46:22.429Z,7.15
2023-02-08T02:49:10.758Z,7.43
2023-02-08T02:52:11.073Z,7.32
2023-02-08T02:54:49.629Z,8.13
2023-02-08T02:57:22.554Z,8.10
2023-02-08T02:59:49.744Z,7.57
2023-02-08T03:02:17.094Z,7.32
2023-02-08T03:04:54.323Z,7.65
2023-02-08T03:07:21.539Z,7.60
2023-02-08T03:10:26.172Z,7.30
2023-02-08T03:12:53.398Z,7.22
2023-02-08T03:15:20.589Z,7.03
2023-02-08T03:18:13.772Z,7.20
2023-02-08T03:20:53.320Z,8.57
2023-02-08T03:23:27.866Z,7.70
2023-02-08T03:26:10.865Z,6.40
2023-02-08T03:29:03.480Z,8.13
2023-02-08T03:31:38.152Z,7.28
2023-02-08T03:34:13.132Z,6.80
2023-02-08T03:36:48.887Z,7.10
2023-02-08T03:39:26.015Z,8.07
2023-02-08T03:41:57.480Z,7.97
2023-02-08T03:44:38.935Z,7.88
2023-02-08T03:47:09.223Z,8.13
2023-02-08T03:49:37.361Z,8.73
2023-02-08T03:52:08.727Z,8.45
2023-02-08T03:54:49.488Z,8.20
2023-02-08T03:57:52.414Z,8.95
2023-02-08T04:00:21.498Z,8.85
2023-02-08T04:03:14.213Z,8.43
2023-02-08T04:05:41.604Z,8.43
2023-02-08T04:08:08.802Z,7.97
2023-02-08T04:10:36.012Z,7.82
2023-02-08T04:13:04.476Z,8.38
2023-02-08T04:15:31.784Z,8.82
2023-02-08T04:17:59.006Z,9.10
2023-02-08T04:20:26.238Z,8.88
2023-02-08T04:22:53.452Z,7.63
2023-02-08T04:25:21.070Z,8.25
2023-02-08T04:27:47.987Z,8.57
2023-02-08T04:30:15.228Z,8.90
2023-02-08T04:32:42.432Z,8.23
2023-02-08T04:35:09.803Z,7.93
2023-02-08T04:37:36.605Z,8.40
2023-02-08T04:40:04.081Z,8.48
2023-02-08T04:42:31.423Z,8.55
2023-02-08T04:44:58.862Z,8.45
2023-02-08T04:47:26.344Z,8.13
2023-02-08T04:49:53.109Z,8.85
2023-02-08T04:52:20.316Z,8.25
2023-02-08T04:54:47.074Z,7.90
2023-02-08T04:57:14.712Z,7.72
2023-02-08T04:59:41.912Z,8.77
2023-02-08T05:02:09.161Z,8.55
2023-02-08T05:04:36.628Z,8.45
2023-02-08T05:07:04.070Z,8.75
2023-02-08T05:09:31.236Z,7.55
2023-02-08T05:11:58.428Z,8.00
2023-02-08T05:14:25.220Z,8.73
2023-02-08T05:16:52.427Z,8.55
2023-02-08T05:19:19.248Z,8.35
2023-02-08T05:21:46.103Z,8.68
2023-02-08T05:24:13.706Z,7.20
2023-02-08T05:26:41.490Z,8.13
2023-02-08T05:29:08.713Z,8.55
2023-02-08T05:31:36.242Z,7.63
2023-02-08T05:34:03.505Z,7.57
2023-02-08T05:36:30.528Z,6.57
2023-02-08T05:38:57.854Z,7.97
2023-02-08T05:41:25.196Z,7.70
2023-02-08T05:43:52.462Z,7.70
2023-02-08T05:46:19.766Z,7.15
2023-02-08T05:48:47.027Z,7.88
2023-02-08T05:51:14.202Z,7.25
2023-02-08T05:53:41.504Z,7.60
2023-02-08T05:56:08.711Z,7.88
2023-02-08T05:58:36.037Z,7.90
2023-02-08T06:01:11.593Z,7.95
2023-02-08T06:03:39.780Z,7.88
2023-02-08T06:06:07.647Z,7.18
2023-02-08T06:08:35.178Z,7.97
2023-02-08T06:11:02.425Z,7.72
2023-02-08T06:13:29.340Z,7.82
2023-02-08T06:15:56.581Z,8.00
2023-02-08T06:18:23.918Z,7.75
2023-02-08T06:20:54.302Z,7.38
2023-02-08T06:23:22.315Z,8.50
2023-02-08T06:25:49.570Z,8.00
2023-02-08T06:28:16.745Z,8.23
2023-02-08T06:30:44.612Z,7.60
2023-02-08T06:33:12.949Z,7.80
2023-02-08T06:35:41.842Z,8.18
2023-02-08T06:38:08.667Z,8.50
2023-02-08T06:40:35.882Z,7.65
2023-02-08T06:43:03.168Z,7.75
2023-02-08T06:45:30.425Z,7.68
2023-02-08T06:47:57.279Z,8.57
2023-02-08T06:50:24.517Z,8.07
2023-02-08T06:52:51.273Z,8.20
2023-02-08T06:55:18.547Z,7.88
2023-02-08T06:57:45.331Z,8.48
2023-02-08T07:00:12.663Z,8.35
2023-02-08T07:02:40.029Z,9.13
2023-02-08T07:05:07.581Z,8.45
2023-02-08T07:07:34.772Z,8.63
2023-02-08T07:10:02.026Z,8.95
2023-02-08T07:12:29.197Z,7.97
2023-02-08T07:14:56.398Z,8.05
2023-02-08T07:17:23.588Z,7.90
2023-02-08T07:19:51.075Z,8.23
2023-02-08T07:22:18.280Z,8.77
2023-02-08T07:24:45.498Z,9.07
2023-02-08T07:27:14.171Z,8.32
2023-02-08T07:29:41.505Z,8.77
2023-02-08T07:32:09.947Z,8.68
2023-02-08T07:34:38.335Z,9.35
2023-02-08T07:37:05.610Z,8.70
2023-02-08T07:39:32.435Z,9.63
2023-02-08T07:41:59.848Z,8.15
2023-02-08T07:44:31.814Z,9.63
2023-02-08T07:46:59.004Z,9.02
2023-02-08T07:49:26.260Z,8.70
2023-02-08T07:51:53.646Z,9.45
2023-02-08T07:54:20.898Z,9.35
2023-02-08T07:56:48.109Z,9.52
2023-02-08T07:59:16.109Z,9.30
2023-02-08T08:01:43.405Z,8.88
2023-02-08T08:04:10.745Z,9.13
2023-02-08T08:06:38.020Z,8.38
2023-02-08T08:09:05.808Z,8.63
2023-02-08T08:11:32.612Z,9.23
2023-02-08T08:13:59.851Z,9.38
2023-02-08T08:16:26.732Z,9.40
2023-02-08T08:18:54.355Z,9.00
2023-02-08T08:21:21.574Z,10.05
2023-02-08T08:23:48.797Z,10.48
2023-02-08T08:26:18.485Z,10.02
2023-02-08T08:28:46.797Z,10.70
2023-02-08T08:31:16.855Z,8.60
2023-02-08T08:33:44.388Z,9.18
2023-02-08T08:36:11.888Z,8.75
2023-02-08T08:38:40.529Z,10.45
2023-02-08T08:41:12.098Z,10.23
2023-02-08T08:43:38.915Z,10.40
2023-02-08T08:46:07.246Z,10.90
2023-02-08T08:48:35.238Z,10.30
2023-02-08T08:51:03.229Z,9.43
2023-02-08T08:53:30.725Z,9.85
2023-02-08T08:55:57.574Z,10.02
2023-02-08T08:58:24.741Z,9.80
2023-02-08T09:00:51.921Z,10.55
2023-02-08T09:03:19.286Z,10.20
2023-02-08T09:05:46.826Z,9.73
2023-02-08T09:08:14.059Z,11.07
2023-02-08T09:10:41.675Z,10.55
2023-02-08T09:13:09.388Z,10.35
2023-02-08T09:15:40.281Z,10.80
2023-02-08T09:18:07.838Z,10.43
2023-02-08T09:20:38.313Z,9.73
2023-02-08T09:23:05.539Z,10.57
2023-02-08T09:25:33.556Z,9.10
2023-02-08T09:28:00.939Z,10.55
2023-02-08T09:30:28.231Z,10.20
2023-02-08T09:32:55.443Z,8.13
2023-02-08T09:35:22.213Z,10.25
2023-02-08T09:37:54.458Z,9.55
2023-02-08T09:40:24.769Z,9.15
2023-02-08T09:43:18.355Z,10.50
2023-02-08T09:45:59.811Z,9.43
2023-02-08T09:48:37.638Z,9.32
2023-02-08T09:51:26.339Z,8.40
2023-02-08T09:54:08.143Z,8.82
2023-02-08T09:56:42.634Z,9.15
2023-02-08T09:59:21.370Z,8.10
2023-02-08T10:01:50.639Z,9.57
2023-02-08T10:04:30.664Z,9.05
2023-02-08T10:06:57.928Z,8.48
2023-02-08T10:09:26.936Z,8.45
2023-02-08T10:12:07.128Z,9.05
2023-02-08T10:14:44.672Z,8.65
2023-02-08T10:17:39.464Z,8.90
2023-02-08T10:20:06.690Z,8.10
2023-02-08T10:22:43.317Z,8.55
2023-02-08T10:25:20.559Z,8.77
2023-02-08T10:27:53.532Z,7.13
2023-02-08T10:30:38.841Z,8.18
2023-02-08T10:33:19.696Z,7.70
2023-02-08T10:35:50.093Z,7.93
2023-02-08T10:38:17.304Z,8.02
2023-02-08T10:40:45.016Z,7.93
2023-02-08T10:43:12.353Z,7.15
2023-02-08T10:45:52.882Z,7.82
2023-02-08T10:48:49.899Z,8.48
2023-02-08T10:53:49.583Z,8.23
2023-02-08T10:56:45.735Z,7.85
2023-02-08T10:59:22.970Z,8.10
2023-02-08T11:01:50.975Z,7.68
2023-02-08T11:04:18.578Z,8.35
2023-02-08T11:06:47.544Z,7.18
2023-02-08T11:09:29.493Z,8.55
2023-02-08T11:12:00.280Z,7.30
2023-02-08T11:14:46.756Z,8.68
2023-02-08T11:17:33.971Z,7.60
2023-02-08T11:20:01.475Z,7.07
2023-02-08T11:22:34.491Z,7.78
2023-02-08T11:25:05.793Z,7.30
2023-02-08T11:27:36.271Z,7.50
2023-02-08T11:30:15.683Z,7.40
2023-02-08T11:32:45.253Z,7.60
2023-02-08T11:35:24.474Z,6.72
2023-02-08T11:37:57.045Z,7.53
2023-02-08T11:40:26.622Z,6.35
2023-02-08T11:42:54.006Z,7.43
2023-02-08T11:45:24.194Z,6.85
2023-02-08T11:47:51.844Z,7.75
2023-02-08T11:50:36.964Z,7.55
2023-02-08T11:53:29.258Z,6.20
2023-02-08T11:56:20.711Z,6.50
2023-02-08T11:58:56.867Z,7.05
2023-02-08T12:03:55.651Z,6.32
2023-02-08T12:06:48.122Z,7.15
2023-02-08T12:09:42.890Z,6.93
2023-02-08T12:12:11.089Z,6.28
2023-02-08T12:14:52.558Z,7.25
2023-02-08T12:17:41.064Z,7.47
2023-02-08T12:20:47.126Z,6.65
2023-02-08T12:23:14.879Z,6.47
2023-02-08T12:25:55.771Z,6.05
2023-02-08T12:28:31.763Z,6.53
2023-02-08T12:31:16.641Z,6.22
2023-02-08T12:33:44.008Z,6.32
2023-02-08T12:37:24.038Z,6.35
2023-02-08T12:40:41.466Z,6.43
2023-02-08T12:43:17.436Z,5.85
2023-02-08T12:46:06.950Z,5.65
2023-02-08T12:48:57.964Z,6.10
2023-02-08T12:51:39.358Z,6.45
2023-02-08T12:54:32.472Z,6.15
2023-02-08T12:57:02.708Z,6.45
2023-02-08T12:59:49.697Z,7.68
2023-02-08T13:02:46.426Z,6.32
2023-02-08T13:05:22.269Z,6.40
2023-02-08T13:07:57.235Z,6.28
2023-02-08T13:10:27.049Z,5.75
2023-02-08T13:13:01.543Z,5.85
2023-02-08T13:15:40.028Z,6.43
2023-02-08T13:18:18.920Z,5.57
2023-02-08T13:20:47.411Z,6.53
2023-02-08T13:23:43.539Z,6.13
2023-02-08T13:26:31.510Z,6.10
2023-02-08T13:29:02.271Z,6.35
2023-02-08T13:31:31.107Z,5.47
2023-02-08T13:34:08.371Z,5.72
2023-02-08T13:36:39.800Z,6.07
2023-02-08T13:39:38.577Z,5.63
2023-02-08T13:42:08.400Z,5.47
2023-02-08T13:44:40.204Z,5.53
2023-02-08T13:47:07.862Z,5.55
2023-02-08T13:49:54.228Z,6.18
2023-02-08T13:52:46.540Z,6.20
2023-02-08T13:55:38.237Z,5.28
2023-02-08T13:58:14.183Z,6.13
2023-02-08T14:03:32.565Z,4.85
2023-02-08T14:06:04.909Z,4.47
2023-02-08T14:08:42.626Z,4.95
2023-02-08T14:11:23.484Z,5.30
2023-02-08T14:13:55.046Z,5.13
2023-02-08T14:16:22.268Z,5.32
2023-02-08T14:18:52.933Z,5.15
2023-02-08T14:21:47.600Z,5.70
2023-02-08T14:24:34.191Z,5.45
2023-02-08T14:29:37.433Z,4.47
2023-02-08T14:32:05.480Z,4.57
2023-02-08T14:34:37.713Z,4.85
2023-02-08T14:37:21.522Z,5.10
2023-02-08T14:39:52.910Z,5.35
2023-02-08T14:42:54.384Z,5.13
2023-02-08T14:45:28.769Z,5.00
2023-02-08T14:48:33.297Z,5.00
2023-02-08T14:51:10.451Z,4.72
2023-02-08T14:53:57.066Z,5.60
2023-02-08T14:56:31.696Z,4.63
2023-02-08T14:59:14.001Z,5.65
2023-02-08T15:01:59.011Z,4.95
2023-02-08T15:04:26.735Z,5.40
2023-02-08T15:07:08.623Z,5.72
2023-02-08T15:09:39.955Z,5.28
2023-02-08T15:12:26.139Z,5.38
2023-02-08T15:14:55.395Z,5.25
2023-02-08T15:17:35.404Z,6.32
2023-02-08T15:20:06.344Z,5.43
2023-02-08T15:22:36.998Z,5.68
2023-02-08T15:25:31.744Z,5.85
2023-02-08T15:28:04.520Z,5.13
2023-02-08T15:30:36.862Z,4.95
2023-02-08T15:33:18.018Z,5.68
2023-02-08T15:35:46.076Z,5.13
2023-02-08T15:38:18.877Z,5.28
2023-02-08T15:41:02.777Z,4.60
2023-02-08T15:43:30.209Z,4.70
2023-02-08T15:45:59.248Z,4.28
2023-02-08T15:48:28.165Z,4.97
2023-02-08T15:50:55.755Z,4.88
2023-02-08T15:53:24.020Z,5.15
2023-02-08T15:55:56.046Z,4.88
2023-02-08T15:58:34.940Z,4.93
2023-02-08T16:01:03.450Z,5.72
2023-02-08T16:03:31.567Z,4.93
2023-02-08T16:06:02.970Z,5.72
2023-02-08T16:08:32.787Z,6.22
2023-02-08T16:11:15.538Z,5.47
2023-02-08T16:13:48.642Z,5.32
2023-02-08T16:16:22.371Z,5.20
2023-02-08T16:18:50.284Z,5.28
2023-02-08T16:21:25.924Z,4.95
2023-02-08T16:23:56.494Z,5.22
2023-02-08T16:26:29.657Z,4.63
2023-02-08T16:29:02.374Z,5.68
2023-02-08T16:31:31.957Z,5.15
2023-02-08T16:34:03.717Z,5.40
2023-02-08T16:36:51.856Z,5.45
2023-02-08T16:39:18.713Z,6.10
2023-02-08T16:42:13.678Z,6.05
2023-02-08T16:45:20.604Z,6.07
2023-02-08T16:47:51.001Z,6.07
2023-02-08T16:50:27.115Z,5.20
2023-02-08T16:52:58.689Z,5.88
2023-02-08T16:55:29.616Z,6.35
2023-02-08T16:57:58.388Z,7.10
2023-02-08T17:00:31.350Z,6.18
2023-02-08T17:02:58.733Z,5.88
2023-02-08T17:05:30.339Z,5.75
2023-02-08T17:07:58.535Z,5.88
2023-02-08T17:10:30.909Z,5.82
2023-02-08T17:13:17.517Z,5.50
2023-02-08T17:15:48.188Z,5.72
2023-02-08T17:18:15.855Z,6.47
2023-02-08T17:20:43.332Z,6.10
2023-02-08T17:23:10.378Z,6.38
2023-02-08T17:25:37.989Z,5.90
2023-02-08T17:28:07.553Z,5.70
2023-02-08T17:30:40.332Z,5.15
2023-02-08T17:33:10.097Z,6.18
2023-02-08T17:35:38.220Z,5.97
2023-02-08T17:38:06.128Z,6.40
2023-02-08T17:40:35.940Z,6.90
2023-02-08T17:43:04.999Z,8.07
2023-02-08T17:45:32.347Z,10.07
2023-02-08T17:48:02.019Z,10.25
2023-02-08T17:50:29.258Z,8.23
2023-02-08T17:52:56.446Z,7.70
2023-02-08T17:55:24.894Z,6.88
2023-02-08T17:57:51.806Z,6.47
2023-02-08T18:00:21.449Z,7.47
2023-02-08T18:02:51.062Z,10.00
2023-02-08T18:05:20.298Z,9.48
2023-02-08T18:07:47.544Z,8.98
2023-02-08T18:10:15.404Z,8.10
2023-02-08T18:12:43.144Z,8.90
2023-02-08T18:15:13.596Z,9.05
2023-02-08T18:17:41.512Z,10.05
2023-02-08T18:20:10.252Z,9.05
2023-02-08T18:22:38.120Z,8.82
2023-02-08T18:25:05.570Z,8.95
2023-02-08T18:27:32.759Z,8.05
2023-02-08T18:30:00.024Z,9.70
2023-02-08T18:32:28.111Z,8.70
2023-02-08T18:34:55.926Z,9.30
2023-02-08T18:37:23.272Z,9.35
2023-02-08T18:39:51.366Z,10.27
2023-02-08T18:42:18.684Z,10.70
2023-02-08T18:44:46.015Z,10.52
2023-02-08T18:47:13.324Z,10.75
2023-02-08T18:49:41.094Z,10.18
2023-02-08T18:52:12.857Z,17.02
2023-02-08T18:54:40.484Z,12.75
2023-02-08T18:57:10.858Z,10.70
2023-02-08T18:59:39.152Z,10.95
2023-02-08T19:02:07.373Z,12.20
2023-02-08T19:04:38.882Z,12.27
2023-02-08T19:07:06.622Z,12.23
2023-02-08T19:09:37.824Z,12.55
2023-02-08T19:12:05.652Z,13.18
2023-02-08T19:14:32.660Z,10.30
2023-02-08T19:17:00.289Z,10.25
2023-02-08T19:19:27.090Z,8.88
2023-02-08T19:21:54.331Z,9.75
2023-02-08T19:24:21.535Z,12.20
2023-02-08T19:26:48.881Z,11.18
2023-02-08T19:29:18.276Z,10.73
2023-02-08T19:31:46.138Z,13.85
2023-02-08T19:34:13.579Z,14.27
2023-02-08T19:36:46.769Z,15.82
2023-02-08T19:39:16.523Z,15.48
2023-02-08T19:41:45.458Z,11.68
2023-02-08T19:44:15.182Z,9.40
2023-02-08T19:46:44.772Z,9.32
2023-02-08T19:49:13.321Z,7.95
2023-02-08T19:51:41.277Z,7.80
2023-02-08T19:54:13.148Z,8.23
2023-02-08T19:56:40.868Z,8.00
2023-02-08T19:59:19.107Z,9.85
2023-02-08T20:01:46.428Z,9.27
2023-02-08T20:04:13.819Z,10.20
2023-02-08T20:06:43.426Z,11.20
2023-02-08T20:09:11.311Z,10.65
2023-02-08T20:11:51.210Z,10.65
2023-02-08T20:14:24.673Z,10.27
2023-02-08T20:16:52.404Z,10.45
2023-02-08T20:19:19.709Z,12.55
2023-02-08T20:21:46.970Z,10.75
2023-02-08T20:24:14.170Z,9.77
2023-02-08T20:26:43.809Z,9.25
2023-02-08T20:29:12.801Z,8.88
2023-02-08T20:31:42.587Z,9.63
2023-02-08T20:34:12.701Z,8.85
2023-02-08T20:37:05.221Z,11.50
2023-02-08T20:39:33.622Z,9.77
2023-02-08T20:42:00.560Z,9.52
2023-02-08T20:44:28.532Z,8.95
2023-02-08T20:46:55.832Z,9.18
2023-02-08T20:49:25.609Z,9.23
2023-02-08T20:51:55.535Z,9.07
2023-02-08T20:54:25.814Z,9.50
2023-02-08T20:56:54.157Z,8.73
2023-02-08T20:59:21.691Z,9.00
2023-02-08T21:01:48.953Z,9.57
2023-02-08T21:04:17.243Z,9.25
2023-02-08T21:06:46.205Z,17.55
2023-02-08T21:09:15.935Z,16.08
2023-02-08T21:11:43.643Z,11.13
2023-02-08T21:14:15.466Z,8.82
2023-02-08T21:16:42.794Z,8.85
2023-02-08T21:19:10.875Z,8.85
2023-02-08T21:21:37.725Z,8.88
2023-02-08T21:24:05.243Z,7.63
2023-02-08T21:26:32.044Z,7.88
2023-02-08T21:29:00.319Z,8.18
2023-02-08T21:31:27.742Z,10.45
2023-02-08T21:33:55.044Z,9.57
2023-02-08T21:36:24.197Z,8.60
2023-02-08T21:38:51.537Z,10.57
2023-02-08T21:41:23.810Z,8.98
2023-02-08T21:43:52.849Z,8.25
2023-02-08T21:46:20.078Z,7.35
2023-02-08T21:49:06.175Z,7.50
2023-02-08T21:51:51.437Z,9.30
2023-02-08T21:54:39.479Z,7.88
2023-02-08T21:57:09.520Z,8.18
2023-02-08T21:59:37.465Z,8.23
2023-02-08T22:02:06.857Z,7.55
2023-02-08T22:04:35.059Z,8.82
2023-02-08T22:07:04.557Z,8.23
2023-02-08T22:09:32.037Z,8.13
2023-02-08T22:11:58.993Z,7.78
2023-02-08T22:14:26.388Z,8.25
2023-02-08T22:16:53.220Z,8.63
2023-02-08T22:19:20.435Z,10.07
2023-02-08T22:21:47.672Z,9.10
2023-02-08T22:24:14.856Z,8.90
2023-02-08T22:26:43.858Z,8.93
2023-02-08T22:29:11.225Z,9.50
2023-02-08T22:31:38.597Z,8.88
2023-02-08T22:34:05.936Z,8.85
2023-02-08T22:36:33.205Z,8.80
2023-02-08T22:39:00.056Z,8.80
2023-02-08T22:41:27.441Z,8.20
2023-02-08T22:43:54.633Z,9.05
2023-02-08T22:46:21.883Z,7.53
2023-02-08T22:48:49.172Z,7.55
2023-02-08T22:51:18.302Z,7.75
2023-02-08T22:53:45.461Z,6.18
2023-02-08T22:56:19.258Z,8.20
2023-02-08T22:58:46.028Z,7.32
2023-02-08T23:01:14.850Z,8.38
2023-02-08T23:03:42.493Z,8.32
2023-02-08T23:06:12.478Z,6.82
2023-02-08T23:08:39.666Z,7.47
2023-02-08T23:11:07.336Z,7.30
2023-02-08T23:13:35.015Z,6.55
2023-02-08T23:16:02.309Z,7.90
2023-02-08T23:18:29.595Z,7.57
2023-02-08T23:20:56.831Z,8.13
2023-02-08T23:23:24.058Z,7.32
2023-02-08T23:25:51.258Z,7.53
2023-02-08T23:28:18.531Z,7.72
2023-02-08T23:30:45.618Z,7.15
2023-02-08T23:33:12.966Z,7.45
2023-02-08T23:35:41.637Z,7.20
2023-02-08T23:38:09.277Z,7.43
2023-02-08T23:40:36.844Z,7.15
2023-02-08T23:43:03.813Z,7.28
2023-02-08T23:45:30.794Z,7.22
2023-02-08T23:47:58.035Z,7.90
2023-02-08T23:50:25.284Z,9.70
2023-02-08T23:52:52.562Z,8.52
2023-02-08T23:55:19.836Z,8.73
2023-02-08T23:57:46.938Z,8.73
